createdAt,value
2023-03-06T00:00:56.296Z,3.74
2023-03-06T00:03:27.757Z,3.69
2023-03-06T00:05:57.490Z,3.65
2023-03-06T00:08:27.325Z,3.89
2023-03-06T00:10:56.161Z,5.46
2023-03-06T00:13:24.928Z,6.95
2023-03-06T00:15:52.745Z,7.60
2023-03-06T00:18:21.543Z,7.04
2023-03-06T00:20:49.399Z,6.38
2023-03-06T00:23:17.227Z,5.89
2023-03-06T00:25:45.549Z,5.55
2023-03-06T00:28:14.931Z,5.29
2023-03-06T00:30:43.818Z,5.09
2023-03-06T00:33:12.374Z,4.92
2023-03-06T00:35:41.116Z,4.76
2023-03-06T00:38:11.937Z,4.63
2023-03-06T00:40:39.867Z,4.51
2023-03-06T00:43:08.506Z,4.39
2023-03-06T00:45:37.346Z,4.29
2023-03-06T00:48:05.878Z,4.22
2023-03-06T00:50:35.289Z,4.15
2023-03-06T00:53:03.563Z,4.08
2023-03-06T00:55:33.388Z,4.02
2023-03-06T00:58:01.239Z,3.96
2023-03-06T01:00:29.174Z,3.93
2023-03-06T01:02:56.996Z,4.20
2023-03-06T01:05:24.972Z,5.54
2023-03-06T01:07:52.937Z,6.80
2023-03-06T01:10:20.937Z,7.50
2023-03-06T01:12:48.976Z,7.06
2023-03-06T01:15:16.902Z,6.43
2023-03-06T01:17:44.780Z,5.96
2023-03-06T01:20:15.342Z,5.63
2023-03-06T01:22:43.320Z,5.40
2023-03-06T01:25:11.504Z,5.20
2023-03-06T01:27:40.732Z,5.04
2023-03-06T01:30:12.572Z,4.89
2023-03-06T01:32:40.835Z,4.77
2023-03-06T01:35:09.178Z,4.66
2023-03-06T01:37:37.508Z,4.57
2023-03-06T01:40:06.507Z,4.48
2023-03-06T01:42:34.459Z,4.38
2023-03-06T01:45:09.155Z,4.29
2023-03-06T01:47:37.074Z,4.57
2023-03-06T01:50:08.790Z,5.99
2023-03-06T01:52:43.735Z,7.23
2023-03-06T01:55:23.539Z,7.91
2023-03-06T01:57:54.858Z,7.37
2023-03-06T02:00:25.194Z,6.73
2023-03-06T02:03:06.871Z,6.28
2023-03-06T02:05:37.784Z,5.93
2023-03-06T02:08:07.004Z,5.69
2023-03-06T02:10:35.260Z,5.48
2023-03-06T02:13:03.441Z,5.28
2023-03-06T02:15:31.354Z,5.09
2023-03-06T02:18:00.219Z,4.92
2023-03-06T02:20:39.302Z,4.78
2023-03-06T02:23:15.127Z,4.67
2023-03-06T02:25:43.202Z,4.57
2023-03-06T02:28:13.714Z,4.48
2023-03-06T02:30:42.871Z,4.40
2023-03-06T02:33:15.823Z,4.58
2023-03-06T02:35:56.779Z,5.96
2023-03-06T02:38:29.372Z,7.36
2023-03-06T02:40:58.204Z,7.93
2023-03-06T02:43:34.023Z,7.42
2023-03-06T02:46:03.351Z,6.75
2023-03-06T02:48:31.643Z,6.32
2023-03-06T02:50:59.400Z,6.03
2023-03-06T02:53:27.268Z,5.80
2023-03-06T02:55:55.088Z,5.57
2023-03-06T02:58:22.882Z,5.35
2023-03-06T03:00:50.894Z,5.12
2023-03-06T03:03:19.439Z,4.93
2023-03-06T03:05:47.185Z,4.73
2023-03-06T03:08:28.327Z,4.53
2023-03-06T03:10:59.121Z,4.68
2023-03-06T03:13:28.503Z,6.06
2023-03-06T03:16:08.788Z,7.17
2023-03-06T03:18:36.794Z,7.94
2023-03-06T03:21:11.603Z,8.12
2023-03-06T03:23:39.844Z,7.46
2023-03-06T03:26:14.063Z,6.84
2023-03-06T03:28:45.364Z,6.36
2023-03-06T03:31:14.486Z,6.01
2023-03-06T03:33:42.895Z,5.74
2023-03-06T03:36:10.828Z,5.53
2023-03-06T03:38:41.844Z,5.33
2023-03-06T03:41:09.749Z,5.15
2023-03-06T03:43:37.645Z,4.97
2023-03-06T03:46:06.298Z,4.79
2023-03-06T03:48:35.065Z,4.62
2023-03-06T03:51:11.351Z,4.79
2023-03-06T03:53:41.753Z,6.17
2023-03-06T03:56:11.501Z,7.28
2023-03-06T03:58:46.194Z,8.11
2023-03-06T04:01:14.209Z,8.42
2023-03-06T04:03:42.195Z,7.79
2023-03-06T04:06:10.384Z,7.07
2023-03-06T04:08:38.781Z,6.53
2023-03-06T04:11:06.910Z,6.12
2023-03-06T04:13:35.063Z,5.75
2023-03-06T04:16:04.560Z,5.46
2023-03-06T04:18:33.408Z,5.23
2023-03-06T04:21:04.679Z,5.02
2023-03-06T04:23:32.670Z,4.80
2023-03-06T04:26:00.928Z,4.81
2023-03-06T04:28:29.083Z,5.84
2023-03-06T04:30:57.722Z,6.91
2023-03-06T04:33:25.652Z,7.64
2023-03-06T04:35:54.763Z,7.90
2023-03-06T04:38:25.834Z,7.23
2023-03-06T04:40:53.667Z,6.45
2023-03-06T04:43:21.836Z,5.84
2023-03-06T04:45:49.832Z,5.36
2023-03-06T04:48:18.494Z,4.98
2023-03-06T04:50:46.845Z,4.96
2023-03-06T04:53:16.609Z,6.20
2023-03-06T04:55:44.423Z,7.39
2023-03-06T04:58:13.991Z,7.89
2023-03-06T05:00:42.079Z,7.32
2023-03-06T05:03:10.500Z,6.56
2023-03-06T05:05:38.276Z,6.00
2023-03-06T05:08:06.605Z,5.57
2023-03-06T05:10:34.506Z,5.19
2023-03-06T05:13:02.203Z,4.89
2023-03-06T05:15:30.061Z,4.94
2023-03-06T05:17:57.858Z,6.20
2023-03-06T05:20:25.666Z,7.47
2023-03-06T05:22:53.408Z,8.18
2023-03-06T05:25:21.146Z,8.34
2023-03-06T05:27:49.159Z,7.63
2023-03-06T05:30:17.099Z,6.83
2023-03-06T05:32:44.875Z,6.23
2023-03-06T05:35:20.701Z,5.77
2023-03-06T05:37:48.951Z,5.79
2023-03-06T05:40:17.830Z,7.05
2023-03-06T05:42:45.650Z,7.83
2023-03-06T05:45:13.447Z,8.30
2023-03-06T05:47:41.271Z,8.53
2023-03-06T05:50:10.602Z,7.82
2023-03-06T05:52:39.892Z,7.02
2023-03-06T05:55:08.468Z,6.39
2023-03-06T05:57:36.298Z,5.93
2023-03-06T06:00:05.069Z,6.51
2023-03-06T06:02:41.268Z,7.79
2023-03-06T06:05:12.784Z,8.57
2023-03-06T06:07:41.482Z,8.59
2023-03-06T06:10:11.343Z,7.74
2023-03-06T06:12:39.113Z,7.02
2023-03-06T06:15:07.457Z,6.53
2023-03-06T06:17:35.255Z,6.17
2023-03-06T06:20:03.822Z,5.87
2023-03-06T06:22:31.713Z,5.85
2023-03-06T06:24:59.718Z,7.05
2023-03-06T06:27:27.546Z,8.27
2023-03-06T06:29:55.349Z,8.69
2023-03-06T06:32:23.122Z,8.10
2023-03-06T06:34:50.889Z,7.35
2023-03-06T06:37:18.857Z,6.75
2023-03-06T06:39:46.603Z,6.24
2023-03-06T06:42:31.499Z,6.07
2023-03-06T06:45:03.474Z,7.27
2023-03-06T06:47:32.007Z,8.02
2023-03-06T06:50:00.172Z,7.68
2023-03-06T06:52:27.989Z,6.97
2023-03-06T06:55:02.515Z,6.44
2023-03-06T06:57:30.395Z,6.07
2023-03-06T06:59:58.314Z,5.81
2023-03-06T07:02:26.055Z,5.61
2023-03-06T07:05:03.619Z,5.61
2023-03-06T07:07:38.013Z,6.77
2023-03-06T07:10:08.754Z,7.88
2023-03-06T07:12:37.082Z,7.61
2023-03-06T07:15:06.252Z,7.00
2023-03-06T07:17:34.174Z,6.55
2023-03-06T07:20:02.174Z,6.27
2023-03-06T07:22:35.877Z,6.04
2023-03-06T07:25:09.982Z,5.86
2023-03-06T07:27:37.889Z,5.80
2023-03-06T07:30:06.329Z,6.68
2023-03-06T07:32:34.232Z,8.05
2023-03-06T07:35:19.119Z,8.84
2023-03-06T07:37:47.761Z,8.40
2023-03-06T07:40:15.549Z,7.84
2023-03-06T07:42:43.592Z,7.46
2023-03-06T07:45:13.621Z,7.15
2023-03-06T07:47:41.630Z,6.90
2023-03-06T07:50:10.166Z,6.69
2023-03-06T07:52:38.012Z,6.55
2023-03-06T07:55:06.302Z,6.45
2023-03-06T07:57:34.096Z,6.33
2023-03-06T08:00:02.361Z,6.23
2023-03-06T08:02:30.117Z,6.21
2023-03-06T08:04:57.910Z,6.25
2023-03-06T08:07:25.824Z,6.71
2023-03-06T08:09:53.567Z,8.00
2023-03-06T08:12:21.420Z,9.26
2023-03-06T08:14:49.192Z,10.04
2023-03-06T08:17:17.030Z,9.77
2023-03-06T08:19:44.798Z,9.28
2023-03-06T08:22:14.096Z,8.88
2023-03-06T08:24:42.007Z,8.58
2023-03-06T08:27:09.788Z,8.34
2023-03-06T08:29:37.679Z,8.12
2023-03-06T08:32:05.873Z,7.98
2023-03-06T08:34:33.628Z,7.89
2023-03-06T08:37:01.466Z,7.79
2023-03-06T08:39:29.196Z,7.66
2023-03-06T08:41:56.953Z,7.53
2023-03-06T08:44:24.781Z,7.41
2023-03-06T08:46:52.572Z,7.36
2023-03-06T08:49:20.490Z,7.38
2023-03-06T08:51:48.295Z,7.43
2023-03-06T08:54:16.117Z,7.47
2023-03-06T08:56:43.970Z,7.54
2023-03-06T08:59:13.510Z,7.62
2023-03-06T14:03:09.008Z,6.83
2023-03-06T14:06:24.735Z,8.74
2023-03-06T14:08:56.432Z,10.33
2023-03-06T14:11:24.747Z,11.13
2023-03-06T14:13:55.569Z,10.90
2023-03-06T14:16:25.930Z,10.38
2023-03-06T14:18:56.139Z,9.95
2023-03-06T14:21:40.383Z,9.71
2023-03-06T14:24:15.752Z,9.58
2023-03-06T14:26:51.411Z,9.57
2023-03-06T14:29:24.698Z,9.65
2023-03-06T14:31:57.375Z,9.72
2023-03-06T14:34:30.548Z,9.72
2023-03-06T14:37:01.409Z,9.66
2023-03-06T14:39:40.833Z,9.64
2023-03-06T14:42:20.840Z,9.55
2023-03-06T14:45:00.610Z,9.34
2023-03-06T14:47:30.896Z,9.18
2023-03-06T14:50:18.529Z,9.09
2023-03-06T14:52:46.548Z,9.00
2023-03-06T14:55:19.785Z,8.95
2023-03-06T14:57:51.395Z,8.96
2023-03-06T15:00:21.573Z,8.99
2023-03-06T15:02:51.650Z,8.98
2023-03-06T15:05:26.549Z,9.04
2023-03-06T15:07:57.922Z,9.12
2023-03-06T15:10:32.227Z,9.12
2023-03-06T15:13:20.156Z,9.08
2023-03-06T15:16:05.532Z,8.99
2023-03-06T15:18:38.867Z,8.91
2023-03-06T15:21:10.545Z,8.87
2023-03-06T15:23:44.233Z,8.84
2023-03-06T15:26:36.923Z,8.86
2023-03-06T15:29:21.222Z,8.95
2023-03-06T15:31:49.413Z,9.05
2023-03-06T15:34:25.151Z,9.14
2023-03-06T15:36:57.742Z,9.18
2023-03-06T15:39:32.762Z,9.11
2023-03-06T15:42:08.987Z,8.90
2023-03-06T15:44:36.818Z,8.68
2023-03-06T15:47:11.562Z,8.46
2023-03-06T15:49:39.727Z,8.20
2023-03-06T15:52:08.102Z,7.97
2023-03-06T15:54:36.018Z,7.76
2023-03-06T15:57:08.472Z,7.62
2023-03-06T15:59:41.984Z,7.45
2023-03-06T16:02:20.827Z,7.32
2023-03-06T16:04:49.421Z,7.20
2023-03-06T16:07:17.700Z,7.11
2023-03-06T16:09:45.820Z,7.04
2023-03-06T16:12:15.165Z,6.96
2023-03-06T16:14:43.926Z,6.89
2023-03-06T16:17:12.598Z,6.83
2023-03-06T16:19:40.459Z,6.77
2023-03-06T16:22:08.466Z,6.74
2023-03-06T16:24:37.353Z,6.72
2023-03-06T16:27:05.523Z,6.70
2023-03-06T16:29:33.635Z,6.67
2023-03-06T16:32:02.240Z,6.62
2023-03-06T16:34:30.422Z,6.55
2023-03-06T16:36:58.197Z,6.51
2023-03-06T16:39:26.065Z,6.41
2023-03-06T16:41:53.979Z,6.36
2023-03-06T16:44:21.766Z,6.29
2023-03-06T16:46:50.578Z,6.25
2023-03-06T16:49:25.013Z,6.18
2023-03-06T16:51:53.385Z,6.12
2023-03-06T16:54:23.247Z,6.06
2023-03-06T16:56:51.029Z,5.97
2023-03-06T16:59:19.199Z,5.89
2023-03-06T17:01:47.245Z,5.83
2023-03-06T17:04:15.192Z,5.77
2023-03-06T17:06:43.465Z,5.72
2023-03-06T17:09:11.838Z,5.66
2023-03-06T17:11:42.711Z,5.62
2023-03-06T17:14:11.024Z,5.55
2023-03-06T17:16:40.506Z,5.49
2023-03-06T17:19:08.742Z,5.45
2023-03-06T17:21:38.642Z,5.42
2023-03-06T17:24:06.896Z,5.41
2023-03-06T17:26:38.200Z,5.41
2023-03-06T17:29:07.196Z,5.53
2023-03-06T17:31:35.552Z,6.67
2023-03-06T17:34:03.356Z,8.38
2023-03-06T17:36:31.901Z,9.61
2023-03-06T17:39:02.064Z,10.14
2023-03-06T17:41:32.872Z,9.49
2023-03-06T17:44:01.887Z,8.70
2023-03-06T17:46:32.215Z,8.15
2023-03-06T17:49:00.514Z,7.76
2023-03-06T17:51:28.643Z,7.48
2023-03-06T17:53:57.389Z,7.26
2023-03-06T17:56:25.999Z,7.07
2023-03-06T17:58:53.829Z,6.89
2023-03-06T18:01:23.780Z,6.74
2023-03-06T18:03:51.658Z,6.63
2023-03-06T18:06:21.009Z,6.54
2023-03-06T18:08:52.616Z,6.42
2023-03-06T18:11:21.225Z,6.31
2023-03-06T18:13:49.616Z,6.21
2023-03-06T18:16:20.933Z,6.11
2023-03-06T18:18:55.133Z,6.01
2023-03-06T18:21:24.330Z,5.93
2023-03-06T18:23:55.311Z,6.07
2023-03-06T18:26:29.665Z,7.65
2023-03-06T18:29:01.431Z,9.32
2023-03-06T18:31:35.189Z,10.06
2023-03-06T18:34:06.568Z,9.41
2023-03-06T18:36:35.608Z,8.61
2023-03-06T18:39:05.981Z,7.99
2023-03-06T18:41:34.015Z,7.53
2023-03-06T18:44:02.553Z,7.21
2023-03-06T18:46:39.822Z,6.96
2023-03-06T18:49:07.783Z,6.70
2023-03-06T18:51:38.183Z,6.49
2023-03-06T18:54:06.798Z,6.31
2023-03-06T18:56:35.332Z,6.13
2023-03-06T18:59:04.790Z,5.96
2023-03-06T19:01:33.710Z,6.12
2023-03-06T19:04:03.074Z,7.69
2023-03-06T19:06:31.389Z,9.20
2023-03-06T19:09:01.446Z,9.88
2023-03-06T19:11:29.911Z,9.19
2023-03-06T19:13:58.294Z,8.34
2023-03-06T19:16:28.602Z,7.73
2023-03-06T19:18:57.576Z,7.26
2023-03-06T19:21:26.854Z,6.88
2023-03-06T19:23:55.979Z,6.60
2023-03-06T19:26:24.015Z,6.35
2023-03-06T19:28:52.528Z,6.13
2023-03-06T19:31:25.052Z,5.95
2023-03-06T19:33:54.404Z,5.79
2023-03-06T19:36:26.750Z,5.87
2023-03-06T19:38:55.749Z,7.29
2023-03-06T19:41:24.154Z,8.82
2023-03-06T19:43:54.233Z,9.60
2023-03-06T19:46:23.393Z,8.99
2023-03-06T19:49:02.969Z,8.21
2023-03-06T19:51:30.813Z,7.62
2023-03-06T19:53:59.404Z,7.25
2023-03-06T19:56:29.047Z,6.96
2023-03-06T19:58:57.375Z,6.69
2023-03-06T20:01:26.682Z,6.45
2023-03-06T20:03:59.191Z,6.24
2023-03-06T20:06:31.142Z,6.02
2023-03-06T20:09:00.378Z,5.81
2023-03-06T20:11:32.559Z,5.67
2023-03-06T20:14:01.516Z,5.90
2023-03-06T20:16:30.529Z,7.42
2023-03-06T20:19:00.486Z,8.88
2023-03-06T20:21:30.366Z,9.21
2023-03-06T20:23:58.310Z,8.54
2023-03-06T20:26:28.453Z,7.91
2023-03-06T20:28:57.104Z,7.44
2023-03-06T20:31:27.301Z,7.12
2023-03-06T20:33:57.518Z,6.87
2023-03-06T20:36:30.621Z,6.65
2023-03-06T20:38:59.840Z,6.46
2023-03-06T20:41:29.049Z,6.30
2023-03-06T20:43:58.760Z,6.14
2023-03-06T20:46:26.602Z,6.00
2023-03-06T20:48:54.792Z,5.88
2023-03-06T20:51:31.723Z,5.77
2023-03-06T20:54:01.172Z,5.69
2023-03-06T20:56:33.868Z,5.63
2023-03-06T20:59:01.922Z,5.84
2023-03-06T21:01:35.032Z,7.29
2023-03-06T21:04:04.550Z,8.83
2023-03-06T21:06:32.917Z,9.54
2023-03-06T21:09:01.259Z,8.99
2023-03-06T21:11:29.691Z,8.27
2023-03-06T21:13:57.596Z,7.76
2023-03-06T21:16:28.156Z,7.40
2023-03-06T21:18:57.646Z,7.14
2023-03-06T21:21:29.225Z,6.94
2023-03-06T21:23:57.700Z,6.72
2023-03-06T21:26:28.081Z,6.54
2023-03-06T21:28:58.148Z,6.38
2023-03-06T21:31:27.118Z,6.24
2023-03-06T21:33:55.649Z,6.11
2023-03-06T21:36:23.516Z,5.97
2023-03-06T21:38:52.421Z,5.85
2023-03-06T21:41:24.791Z,5.75
2023-03-06T21:44:00.888Z,5.67
2023-03-06T21:46:29.018Z,5.60
2023-03-06T21:48:57.212Z,5.78
2023-03-06T21:51:26.269Z,7.12
2023-03-06T21:53:55.424Z,8.46
2023-03-06T21:56:25.440Z,9.08
2023-03-06T21:58:53.454Z,8.59
2023-03-06T22:01:24.039Z,7.91
2023-03-06T22:03:52.211Z,7.38
2023-03-06T22:06:25.394Z,7.04
2023-03-06T22:08:55.061Z,6.77
2023-03-06T22:11:25.633Z,6.55
2023-03-06T22:13:53.467Z,6.35
2023-03-06T22:16:21.418Z,6.17
2023-03-06T22:18:51.477Z,5.96
2023-03-06T22:21:21.493Z,5.77
2023-03-06T22:23:54.280Z,5.59
2023-03-06T22:26:22.179Z,5.73
2023-03-06T22:28:50.299Z,7.05
2023-03-06T22:31:26.332Z,8.42
2023-03-06T22:33:55.280Z,9.25
2023-03-06T22:36:24.009Z,8.78
2023-03-06T22:38:57.216Z,8.10
2023-03-06T22:41:28.264Z,7.59
2023-03-06T22:43:57.138Z,7.24
2023-03-06T22:46:25.554Z,7.00
2023-03-06T22:48:55.921Z,6.78
2023-03-06T22:51:23.696Z,6.56
2023-03-06T22:53:51.531Z,6.36
2023-03-06T22:56:20.826Z,6.20
2023-03-06T22:58:48.996Z,6.04
2023-03-06T23:01:18.010Z,5.90
2023-03-06T23:03:51.401Z,5.78
2023-03-06T23:06:24.677Z,5.98
2023-03-06T23:09:01.820Z,7.42
2023-03-06T23:11:30.277Z,8.85
2023-03-06T23:14:17.974Z,9.46
2023-03-06T23:17:04.824Z,8.75
2023-03-06T23:19:51.730Z,8.00
2023-03-06T23:22:38.092Z,7.44
2023-03-06T23:25:24.899Z,7.08
2023-03-06T23:27:52.674Z,6.82
2023-03-06T23:30:20.525Z,6.57
2023-03-06T23:32:48.315Z,6.38
2023-03-06T23:35:16.181Z,6.22
2023-03-06T23:37:44.041Z,6.08
2023-03-06T23:40:13.735Z,5.95
2023-03-06T23:42:41.466Z,5.83
2023-03-06T23:45:10.012Z,5.73
2023-03-06T23:47:37.750Z,5.64
2023-03-06T23:50:06.432Z,5.82
2023-03-06T23:52:34.311Z,7.29
2023-03-06T23:55:02.066Z,8.83
2023-03-06T23:57:30.684Z,9.52
2023-03-06T23:59:58.522Z,8.95
